createdAt,value
2022-12-22T00:02:37.978Z,98269.31
2022-12-22T00:05:43.115Z,98266.88
2022-12-22T00:08:29.242Z,98259.19
2022-12-22T00:11:15.636Z,98248.72
2022-12-22T00:14:02.937Z,98252.69
2022-12-22T00:16:56.371Z,98254.66
2022-12-22T00:19:42.051Z,98251.75
2022-12-22T00:22:39.451Z,98244.63
2022-12-22T00:25:25.449Z,98237.78
2022-12-22T00:28:11.076Z,98234.84
2022-12-22T00:30:56.077Z,98220.91
2022-12-22T00:33:41.287Z,98235.25
2022-12-22T00:36:29.973Z,98237.06
2022-12-22T00:39:14.861Z,98234.97
2022-12-22T00:42:00.237Z,98240.78
2022-12-22T00:44:45.040Z,98236.16
2022-12-22T00:47:45.065Z,98241.06
2022-12-22T00:50:31.159Z,98235.25
2022-12-22T00:53:17.691Z,98240.81
2022-12-22T00:56:03.069Z,98242.66
2022-12-22T00:58:48.154Z,98245.00
2022-12-22T01:01:33.243Z,98240.59
2022-12-22T01:04:18.418Z,98244.53
2022-12-22T01:07:03.318Z,98243.72
2022-12-22T01:09:48.621Z,98244.63
2022-12-22T01:12:39.972Z,98248.72
2022-12-22T01:15:36.501Z,98257.91
2022-12-22T01:18:22.215Z,98245.81
2022-12-22T01:21:09.622Z,98237.66
2022-12-22T01:23:55.792Z,98241.63
2022-12-22T01:26:40.550Z,98250.13
2022-12-22T01:29:26.105Z,98249.91
2022-12-22T01:32:11.422Z,98250.59
2022-12-22T01:34:56.406Z,98241.75
2022-12-22T01:37:41.324Z,98247.91
2022-12-22T01:40:33.154Z,98242.56
2022-12-22T01:43:18.023Z,98248.97
2022-12-22T01:46:03.111Z,98240.69
2022-12-22T01:48:50.011Z,98252.44
2022-12-22T01:51:39.340Z,98238.94
2022-12-22T01:54:25.921Z,98248.72
2022-12-22T01:57:11.084Z,98244.31
2022-12-22T01:59:56.428Z,98246.78
2022-12-22T02:02:44.882Z,98258.63
2022-12-22T02:05:33.250Z,98246.06
2022-12-22T02:08:42.620Z,98249.19
2022-12-22T02:11:58.322Z,98251.66
2022-12-22T02:14:59.440Z,98235.72
2022-12-22T02:18:06.459Z,98245.41
2022-12-22T02:21:07.997Z,98245.13
2022-12-22T02:24:30.138Z,98238.66
2022-12-22T02:27:18.810Z,98236.16
2022-12-22T02:30:10.514Z,98223.84
2022-12-22T02:33:01.069Z,98236.06
2022-12-22T02:36:20.326Z,98218.22
2022-12-22T02:39:13.725Z,98213.47
2022-12-22T02:42:17.045Z,98206.06
2022-12-22T02:45:23.779Z,98208.94
2022-12-22T02:48:26.158Z,98220.56
2022-12-22T02:51:19.983Z,98224.78
2022-12-22T02:54:05.817Z,98213.25
2022-12-22T02:56:51.162Z,98202.63
2022-12-22T02:59:36.116Z,98205.25
2022-12-22T03:02:21.631Z,98208.84
2022-12-22T03:05:06.853Z,98195.22
2022-12-22T03:07:51.730Z,98193.00
2022-12-22T03:10:36.508Z,98200.09
2022-12-22T03:13:21.465Z,98193.81
2022-12-22T03:16:06.933Z,98189.72
2022-12-22T03:18:51.994Z,98188.91
2022-12-22T03:21:36.882Z,98184.75
2022-12-22T03:24:22.292Z,98180.78
2022-12-22T03:26:48.824Z,98184.16
2022-12-22T03:29:15.574Z,98182.28
2022-12-22T03:31:42.181Z,98166.13
2022-12-22T03:34:08.851Z,98177.25
2022-12-22T03:36:35.386Z,98169.97
2022-12-22T03:39:01.851Z,98166.91
2022-12-22T03:41:47.034Z,98165.88
2022-12-22T03:44:31.830Z,98182.88
2022-12-22T03:46:58.399Z,98171.44
2022-12-22T03:49:26.204Z,98175.56
2022-12-22T03:51:53.413Z,98183.81
2022-12-22T03:54:25.480Z,98165.41
2022-12-22T03:56:53.261Z,98173.03
2022-12-22T03:59:20.347Z,98157.75
2022-12-22T04:01:52.827Z,98163.81
2022-12-22T04:04:21.143Z,98172.25
2022-12-22T04:06:48.111Z,98161.47
2022-12-22T04:09:14.577Z,98155.88
2022-12-22T04:12:00.170Z,98165.38
2022-12-22T04:14:33.158Z,98162.59
2022-12-22T04:17:01.621Z,98151.09
2022-12-22T04:19:28.189Z,98165.19
2022-12-22T04:21:54.917Z,98163.59
2022-12-22T04:24:22.359Z,98168.47
2022-12-22T04:26:49.816Z,98167.44
2022-12-22T04:29:16.477Z,98156.69
2022-12-22T04:31:43.072Z,98158.00
2022-12-22T04:34:09.752Z,98154.72
2022-12-22T04:36:36.420Z,98158.50
2022-12-22T04:39:03.550Z,98158.75
2022-12-22T04:41:30.019Z,98159.81
2022-12-22T04:43:56.489Z,98162.16
2022-12-22T04:46:23.038Z,98167.28
2022-12-22T04:48:53.132Z,98166.72
2022-12-22T04:51:22.623Z,98159.16
2022-12-22T04:53:49.136Z,98158.59
2022-12-22T04:56:15.607Z,98166.31
2022-12-22T04:58:42.140Z,98161.78
2022-12-22T05:01:14.725Z,98162.59
2022-12-22T05:03:41.611Z,98171.81
2022-12-22T05:06:08.877Z,98171.94
2022-12-22T05:08:35.477Z,98186.19
2022-12-22T05:11:02.947Z,98169.81
2022-12-22T05:13:33.262Z,98188.16
2022-12-22T05:16:08.834Z,98183.72
2022-12-22T05:18:36.158Z,98178.59
2022-12-22T05:21:17.434Z,98185.94
2022-12-22T05:23:44.933Z,98174.28
2022-12-22T05:26:11.962Z,98178.94
2022-12-22T05:28:38.472Z,98181.41
2022-12-22T05:31:11.327Z,98185.34
2022-12-22T05:33:37.916Z,98174.78
2022-12-22T05:36:04.830Z,98170.22
2022-12-22T05:38:31.607Z,98168.34
2022-12-22T05:41:03.565Z,98180.28
2022-12-22T05:43:31.465Z,98167.97
2022-12-22T05:45:58.739Z,98181.69
2022-12-22T05:48:30.775Z,98181.69
2022-12-22T05:51:00.522Z,98183.59
2022-12-22T05:53:27.056Z,98187.28
2022-12-22T05:55:53.551Z,98171.97
2022-12-22T05:58:20.029Z,98170.06
2022-12-22T06:00:46.575Z,98170.59
2022-12-22T06:03:13.712Z,98181.06
2022-12-22T06:05:40.372Z,98184.09
2022-12-22T06:08:07.107Z,98191.91
2022-12-22T06:10:33.620Z,98173.63
2022-12-22T06:13:00.175Z,98174.97
2022-12-22T06:15:26.688Z,98177.91
2022-12-22T06:17:54.244Z,98187.28
2022-12-22T06:20:20.713Z,98195.28
2022-12-22T06:22:47.165Z,98200.41
2022-12-22T06:25:18.184Z,98183.63
2022-12-22T06:27:46.417Z,98194.38
2022-12-22T06:30:13.863Z,98193.28
2022-12-22T06:32:40.751Z,98196.19
2022-12-22T06:35:08.496Z,98199.41
2022-12-22T06:37:35.099Z,98212.34
2022-12-22T06:40:02.742Z,98213.91
2022-12-22T06:42:47.748Z,98215.13
2022-12-22T06:45:14.221Z,98223.94
2022-12-22T06:47:40.763Z,98190.97
2022-12-22T06:50:08.015Z,98179.00
2022-12-22T06:52:34.678Z,98179.69
2022-12-22T06:55:02.242Z,98173.38
2022-12-22T06:57:29.272Z,98173.81
2022-12-22T06:59:57.887Z,98173.59
2022-12-22T07:02:25.276Z,98174.91
2022-12-22T07:04:52.045Z,98175.69
2022-12-22T07:07:18.497Z,98183.41
2022-12-22T07:09:45.004Z,98184.50
2022-12-22T07:12:13.529Z,98184.81
2022-12-22T07:14:40.048Z,98187.50
2022-12-22T07:17:06.533Z,98189.94
2022-12-22T07:19:33.020Z,98178.38
2022-12-22T07:21:59.531Z,98180.00
2022-12-22T07:24:26.777Z,98185.41
2022-12-22T07:26:53.387Z,98188.59
2022-12-22T07:29:19.995Z,98182.19
2022-12-22T07:31:47.248Z,98184.56
2022-12-22T07:34:14.172Z,98187.50
2022-12-22T07:36:40.694Z,98180.59
2022-12-22T07:39:08.412Z,98191.50
2022-12-22T07:41:53.596Z,98199.34
2022-12-22T07:44:20.188Z,98191.94
2022-12-22T07:46:46.886Z,98201.38
2022-12-22T07:49:32.157Z,98211.38
2022-12-22T07:51:59.375Z,98229.97
2022-12-22T07:54:27.081Z,98216.84
2022-12-22T07:56:53.854Z,98233.59
2022-12-22T07:59:20.607Z,98213.44
2022-12-22T08:01:47.238Z,98221.22
2022-12-22T08:04:14.931Z,98221.56
2022-12-22T08:06:41.718Z,98235.03
2022-12-22T08:09:09.139Z,98234.41
2022-12-22T08:11:35.966Z,98229.53
2022-12-22T08:14:02.591Z,98226.84
2022-12-22T08:16:29.605Z,98233.03
2022-12-22T08:18:56.941Z,98241.94
2022-12-22T08:21:23.725Z,98245.75
2022-12-22T08:23:50.241Z,98243.84
2022-12-22T08:26:28.552Z,98239.50
2022-12-22T08:28:59.226Z,98238.13
2022-12-22T08:31:27.929Z,98239.69
2022-12-22T08:33:56.339Z,98259.03
2022-12-22T08:36:23.383Z,98271.47
2022-12-22T08:38:50.160Z,98259.69
2022-12-22T08:41:37.331Z,98275.63
2022-12-22T08:44:03.956Z,98273.50
2022-12-22T08:46:30.451Z,98275.41
2022-12-22T08:48:56.911Z,98275.91
2022-12-22T08:51:23.391Z,98263.25
2022-12-22T08:54:06.534Z,98282.34
2022-12-22T08:56:33.735Z,98278.13
2022-12-22T08:59:05.024Z,98283.22
2022-12-22T09:01:33.994Z,98283.53
2022-12-22T09:04:00.662Z,98279.66
2022-12-22T09:06:29.712Z,98267.75
2022-12-22T09:09:00.398Z,98275.78
2022-12-22T09:11:29.313Z,98284.13
2022-12-22T09:13:58.363Z,98270.72
2022-12-22T09:16:27.213Z,98269.44
2022-12-22T09:18:55.886Z,98276.53
2022-12-22T09:21:23.888Z,98262.75
2022-12-22T09:23:50.860Z,98269.59
2022-12-22T09:26:20.047Z,98275.28
2022-12-22T09:28:50.423Z,98264.19
2022-12-22T09:31:18.046Z,98269.06
2022-12-22T09:33:44.523Z,98267.97
2022-12-22T09:36:14.023Z,98266.38
2022-12-22T09:38:41.726Z,98267.47
2022-12-22T09:41:34.922Z,98269.59
2022-12-22T09:44:07.015Z,98256.13
2022-12-22T09:46:36.745Z,98262.06
2022-12-22T09:49:06.004Z,98248.38
2022-12-22T09:51:39.325Z,98236.78
2022-12-22T09:54:05.839Z,98253.38
2022-12-22T09:56:32.290Z,98246.84
2022-12-22T09:59:00.606Z,98267.09
2022-12-22T10:01:32.992Z,98268.00
2022-12-22T10:04:17.460Z,98273.38
2022-12-22T10:07:10.229Z,98295.41
2022-12-22T10:09:52.668Z,98293.16
2022-12-22T10:12:22.842Z,98298.53
2022-12-22T10:14:51.282Z,98303.06
2022-12-22T10:17:23.105Z,98318.66
2022-12-22T10:19:52.788Z,98313.78
2022-12-22T10:22:47.182Z,98316.44
2022-12-22T10:28:57.894Z,98321.31
2022-12-22T10:31:27.406Z,98316.13
2022-12-22T10:33:56.835Z,98326.09
2022-12-22T10:36:32.211Z,98317.50
2022-12-22T10:39:07.550Z,98317.63
2022-12-22T10:41:41.561Z,98310.38
2022-12-22T10:44:13.987Z,98311.75
2022-12-22T10:46:45.044Z,98300.13
2022-12-22T10:52:29.477Z,98313.66
2022-12-22T10:55:23.404Z,98324.50
2022-12-22T10:57:50.792Z,98331.03
2022-12-22T11:00:25.868Z,98326.44
2022-12-22T11:02:55.095Z,98336.38
2022-12-22T11:05:21.916Z,98341.72
2022-12-22T11:07:48.836Z,98347.69
2022-12-22T11:10:20.135Z,98347.19
2022-12-22T11:13:12.313Z,98341.78
2022-12-22T11:15:48.601Z,98360.69
2022-12-22T11:18:33.345Z,98356.41
2022-12-22T11:21:22.042Z,98350.72
2022-12-22T11:24:21.720Z,98351.75
2022-12-22T11:27:22.030Z,98353.56
2022-12-22T11:30:02.883Z,98352.16
2022-12-22T11:32:44.518Z,98334.09
2022-12-22T11:35:46.492Z,98335.69
2022-12-22T11:38:40.044Z,98329.22
2022-12-22T11:41:26.697Z,98337.81
2022-12-22T11:44:24.018Z,98317.88
2022-12-22T11:46:54.493Z,98328.13
2022-12-22T11:49:45.778Z,98329.50
2022-12-22T11:52:40.719Z,98315.47
2022-12-22T11:55:22.083Z,98323.88
2022-12-22T11:58:39.272Z,98313.44
2022-12-22T12:01:26.195Z,98306.25
2022-12-22T12:04:16.353Z,98304.69
2022-12-22T12:06:45.513Z,98307.94
2022-12-22T12:09:25.257Z,98301.72
2022-12-22T12:11:51.688Z,98306.59
2022-12-22T12:14:30.237Z,98308.47
2022-12-22T12:17:02.924Z,98303.63
2022-12-22T12:19:57.683Z,98311.72
2022-12-22T12:22:27.244Z,98313.34
2022-12-22T12:25:19.886Z,98312.25
2022-12-22T12:28:20.503Z,98316.06
2022-12-22T12:30:59.486Z,98321.19
2022-12-22T12:33:48.483Z,98324.44
2022-12-22T12:36:20.539Z,98314.47
2022-12-22T12:39:11.696Z,98320.97
2022-12-22T12:41:38.112Z,98311.25
2022-12-22T12:44:06.023Z,98317.19
2022-12-22T12:46:44.624Z,98303.06
2022-12-22T12:49:36.062Z,98319.88
2022-12-22T12:52:04.651Z,98304.47
2022-12-22T12:54:40.014Z,98312.06
2022-12-22T12:57:23.674Z,98312.84
2022-12-22T12:59:52.669Z,98323.59
2022-12-22T13:02:28.496Z,98320.38
2022-12-22T13:05:13.493Z,98312.34
2022-12-22T13:08:14.252Z,98316.13
2022-12-22T13:11:03.900Z,98334.25
2022-12-22T13:13:36.130Z,98327.72
2022-12-22T13:16:02.830Z,98327.47
2022-12-22T13:18:29.760Z,98326.94
2022-12-22T13:21:50.881Z,98330.13
2022-12-22T13:24:24.162Z,98339.03
2022-12-22T13:26:54.621Z,98327.97
2022-12-22T13:29:29.982Z,98332.28
2022-12-22T13:32:15.807Z,98330.09
2022-12-22T13:35:28.886Z,98341.72
2022-12-22T13:37:46.210Z,98337.13
2022-12-22T13:40:19.211Z,98329.28
2022-12-22T13:42:52.049Z,98317.44
2022-12-22T13:45:39.116Z,98313.38
2022-12-22T13:48:21.167Z,98309.84
2022-12-22T13:50:57.248Z,98311.44
2022-12-22T13:56:42.173Z,98283.63
2022-12-22T13:59:27.959Z,98299.56
2022-12-22T14:02:03.727Z,98296.06
2022-12-22T14:04:31.097Z,98293.34
2022-12-22T14:06:57.704Z,98290.94
2022-12-22T14:09:25.031Z,98288.22
2022-12-22T14:12:07.330Z,98290.91
2022-12-22T14:14:39.697Z,98283.88
2022-12-22T14:17:29.183Z,98283.59
2022-12-22T14:20:01.516Z,98285.25
2022-12-22T14:22:37.841Z,98289.53
2022-12-22T14:25:16.593Z,98280.88
2022-12-22T14:27:49.072Z,98281.44
2022-12-22T14:30:21.058Z,98274.97
2022-12-22T14:32:54.881Z,98285.47
2022-12-22T14:35:24.211Z,98278.72
2022-12-22T14:37:52.535Z,98290.31
2022-12-22T14:40:37.549Z,98297.06
2022-12-22T14:43:08.015Z,98295.97
2022-12-22T14:45:34.579Z,98288.94
2022-12-22T14:48:01.075Z,98291.63
2022-12-22T14:50:29.429Z,98298.91
2022-12-22T14:53:01.421Z,98310.50
2022-12-22T14:55:50.647Z,98294.25
2022-12-22T14:58:25.430Z,98291.56
2022-12-22T15:01:23.079Z,98285.34
2022-12-22T15:04:04.798Z,98300.97
2022-12-22T15:06:38.476Z,98288.81
2022-12-22T15:09:06.393Z,98292.59
2022-12-22T15:11:34.232Z,98290.44
2022-12-22T15:14:01.579Z,98288.00
2022-12-22T15:16:28.194Z,98290.66
2022-12-22T15:18:54.867Z,98288.75
2022-12-22T15:21:22.874Z,98299.03
2022-12-22T15:23:49.388Z,98286.91
2022-12-22T15:26:15.895Z,98293.63
2022-12-22T15:28:42.352Z,98293.91
2022-12-22T15:31:16.485Z,98293.63
2022-12-22T15:33:44.657Z,98305.25
2022-12-22T15:36:13.090Z,98303.94
2022-12-22T15:38:41.157Z,98304.97
2022-12-22T15:41:08.111Z,98297.97
2022-12-22T15:43:57.053Z,98295.84
2022-12-22T15:46:24.627Z,98301.72
2022-12-22T15:48:51.401Z,98282.56
2022-12-22T15:51:24.983Z,98285.53
2022-12-22T15:53:53.724Z,98276.41
2022-12-22T15:56:22.929Z,98289.59
2022-12-22T15:58:49.742Z,98287.94
2022-12-22T16:01:16.364Z,98286.06
2022-12-22T16:03:43.168Z,98293.03
2022-12-22T16:06:15.382Z,98284.69
2022-12-22T16:08:45.600Z,98286.31
2022-12-22T16:11:12.339Z,98282.25
2022-12-22T16:13:39.134Z,98279.78
2022-12-22T16:16:06.264Z,98277.91
2022-12-22T16:18:32.845Z,98283.25
2022-12-22T16:21:07.764Z,98277.06
2022-12-22T16:23:36.709Z,98277.31
2022-12-22T16:26:05.027Z,98277.78
2022-12-22T16:28:33.315Z,98279.34
2022-12-22T16:31:01.036Z,98280.91
2022-12-22T16:33:27.681Z,98272.81
2022-12-22T16:35:54.237Z,98269.28
2022-12-22T16:38:21.954Z,98265.72
2022-12-22T16:40:52.052Z,98269.28
2022-12-22T16:46:15.742Z,98254.66
2022-12-22T16:48:54.693Z,98263.28
2022-12-22T16:51:37.273Z,98253.53
2022-12-22T16:54:04.489Z,98254.31
2022-12-22T16:56:32.218Z,98259.16
2022-12-22T16:58:58.805Z,98247.28
2022-12-22T17:01:32.610Z,98246.16
2022-12-22T17:04:04.645Z,98247.47
2022-12-22T17:06:31.742Z,98234.00
2022-12-22T17:08:58.458Z,98229.69
2022-12-22T17:11:29.249Z,98227.56
2022-12-22T17:14:04.628Z,98224.09
2022-12-22T17:16:31.245Z,98212.22
2022-12-22T17:18:57.929Z,98207.34
2022-12-22T17:21:25.445Z,98194.97
2022-12-22T17:23:54.933Z,98192.28
2022-12-22T17:26:25.577Z,98187.50
2022-12-22T17:28:53.152Z,98184.78
2022-12-22T17:31:22.457Z,98177.50
2022-12-22T17:33:49.080Z,98174.22
2022-12-22T17:36:21.669Z,98177.22
2022-12-22T17:38:48.270Z,98178.81
2022-12-22T17:41:17.033Z,98168.34
2022-12-22T17:43:43.805Z,98166.72
2022-12-22T17:46:16.208Z,98160.22
2022-12-22T17:48:43.385Z,98165.88
2022-12-22T17:51:25.848Z,98154.03
2022-12-22T17:53:53.228Z,98149.19
2022-12-22T17:56:22.747Z,98152.94
2022-12-22T17:58:50.108Z,98141.63
2022-12-22T18:01:23.670Z,98148.34
2022-12-22T18:03:50.701Z,98140.00
2022-12-22T18:06:19.873Z,98143.75
2022-12-22T18:08:47.336Z,98141.66
2022-12-22T18:11:14.318Z,98142.72
2022-12-22T18:13:41.138Z,98139.75
2022-12-22T18:16:13.314Z,98147.53
2022-12-22T18:18:39.791Z,98139.41
2022-12-22T18:21:08.238Z,98134.50
2022-12-22T18:23:36.986Z,98136.41
2022-12-22T18:26:10.503Z,98138.81
2022-12-22T18:28:37.028Z,98134.78
2022-12-22T18:31:03.676Z,98134.78
2022-12-22T18:33:30.157Z,98127.44
2022-12-22T18:35:59.190Z,98125.03
2022-12-22T18:38:29.685Z,98125.81
2022-12-22T18:40:56.493Z,98123.63
2022-12-22T18:43:23.413Z,98123.88
2022-12-22T18:45:49.990Z,98121.66
2022-12-22T18:48:16.668Z,98123.63
2022-12-22T18:50:43.310Z,98123.84
2022-12-22T18:53:27.956Z,98121.63
2022-12-22T18:55:54.924Z,98121.50
2022-12-22T18:58:21.812Z,98123.59
2022-12-22T19:00:49.296Z,98123.28
2022-12-22T19:03:25.036Z,98126.00
2022-12-22T19:05:51.727Z,98133.00
2022-12-22T19:08:20.378Z,98127.69
2022-12-22T19:10:50.525Z,98125.44
2022-12-22T19:13:30.950Z,98128.19
2022-12-22T19:15:58.346Z,98128.47
2022-12-22T19:18:27.447Z,98115.25
2022-12-22T19:20:56.101Z,98110.16
2022-12-22T19:23:24.479Z,98101.28
2022-12-22T19:25:54.370Z,98094.84
2022-12-22T19:28:49.015Z,98085.19
2022-12-22T19:31:23.143Z,98087.94
2022-12-22T19:33:49.759Z,98087.91
2022-12-22T19:36:19.571Z,98072.28
2022-12-22T19:38:50.301Z,98065.28
2022-12-22T19:41:52.640Z,98063.06
2022-12-22T19:44:24.307Z,98053.84
2022-12-22T19:46:52.322Z,98037.72
2022-12-22T19:49:24.085Z,98036.06
2022-12-22T19:51:51.035Z,98027.75
2022-12-22T19:54:19.484Z,98013.44
2022-12-22T19:56:52.481Z,98010.47
2022-12-22T19:59:37.698Z,97998.00
2022-12-22T20:02:30.717Z,97989.69
2022-12-22T20:04:58.456Z,97979.78
2022-12-22T20:07:27.267Z,97965.22
2022-12-22T20:09:54.226Z,97959.03
2022-12-22T20:12:31.923Z,97953.66
2022-12-22T20:14:59.950Z,97953.66
2022-12-22T20:17:27.066Z,97948.59
2022-12-22T20:19:53.892Z,97940.06
2022-12-22T20:22:23.145Z,97930.88
2022-12-22T20:24:50.904Z,97934.03
2022-12-22T20:27:23.610Z,97935.19
2022-12-22T20:29:50.575Z,97918.00
2022-12-22T20:32:22.325Z,97909.13
2022-12-22T20:34:53.875Z,97904.56
2022-12-22T20:37:20.454Z,97902.34
2022-12-22T20:39:47.059Z,97898.06
2022-12-22T20:42:22.279Z,97886.50
2022-12-22T20:45:02.702Z,97878.16
2022-12-22T20:47:32.893Z,97871.72
2022-12-22T20:49:59.589Z,97864.47
2022-12-22T20:52:26.267Z,97859.94
2022-12-22T20:54:52.725Z,97863.94
2022-12-22T20:57:20.310Z,97857.75
2022-12-22T20:59:53.933Z,97853.41
2022-12-22T21:02:27.207Z,97865.25
2022-12-22T21:04:54.267Z,97851.25
2022-12-22T21:07:21.129Z,97856.09
2022-12-22T21:09:48.001Z,97866.88
2022-12-22T21:12:14.903Z,97871.19
2022-12-22T21:14:41.707Z,97848.59
2022-12-22T21:17:16.745Z,97864.47
2022-12-22T21:19:43.667Z,97866.88
2022-12-22T21:22:10.382Z,97851.53
2022-12-22T21:24:37.158Z,97842.94
2022-12-22T21:27:04.975Z,97834.06
2022-12-22T21:29:32.058Z,97821.16
2022-12-22T21:31:58.581Z,97835.41
2022-12-22T21:34:25.134Z,97830.31
2022-12-22T21:36:58.938Z,97827.63
2022-12-22T21:39:39.394Z,97821.16
2022-12-22T21:42:07.553Z,97828.69
2022-12-22T21:44:35.567Z,97834.88
2022-12-22T21:47:02.715Z,97830.03
2022-12-22T21:49:32.590Z,97836.75
2022-12-22T21:51:59.280Z,97834.06
2022-12-22T21:54:26.344Z,97843.81
2022-12-22T21:56:54.118Z,97835.19
2022-12-22T21:59:21.729Z,97835.22
2022-12-22T22:01:48.771Z,97829.84
2022-12-22T22:04:15.712Z,97835.50
2022-12-22T22:06:42.608Z,97835.22
2022-12-22T22:09:09.851Z,97828.78
2022-12-22T22:11:59.472Z,97845.50
2022-12-22T22:14:27.212Z,97845.75
2022-12-22T22:16:54.685Z,97842.78
2022-12-22T22:19:21.428Z,97850.88
2022-12-22T22:21:48.368Z,97856.81
2022-12-22T22:24:15.124Z,97844.69
2022-12-22T22:26:45.400Z,97850.59
2022-12-22T22:29:12.196Z,97846.56
2022-12-22T22:31:40.330Z,97843.88
2022-12-22T22:34:07.095Z,97834.69
2022-12-22T22:36:33.864Z,97837.41
2022-12-22T22:39:00.589Z,97834.72
2022-12-22T22:41:29.282Z,97828.50
2022-12-22T22:43:56.116Z,97836.59
2022-12-22T22:46:23.309Z,97838.47
2022-12-22T22:48:50.152Z,97837.66
2022-12-22T22:51:16.964Z,97839.03
2022-12-22T22:53:43.694Z,97841.19
2022-12-22T22:56:10.355Z,97848.16
2022-12-22T22:58:37.058Z,97848.72
2022-12-22T23:01:06.094Z,97858.91
2022-12-22T23:03:33.044Z,97863.69
2022-12-22T23:06:09.380Z,97866.59
2022-12-22T23:08:36.603Z,97882.44
2022-12-22T23:11:04.931Z,97865.78
2022-12-22T23:13:31.710Z,97858.25
2022-12-22T23:16:03.667Z,97854.47
2022-12-22T23:18:33.796Z,97856.63
2022-12-22T23:21:03.295Z,97864.16
2022-12-22T23:23:31.497Z,97858.25
2022-12-22T23:25:58.262Z,97859.88
2022-12-22T23:28:25.395Z,97851.03
2022-12-22T23:30:53.020Z,97861.03
2022-12-22T23:33:21.004Z,97868.59
2022-12-22T23:35:49.311Z,97869.44
2022-12-22T23:38:17.817Z,97867.56
2022-12-22T23:40:53.391Z,97861.66
2022-12-22T23:43:21.526Z,97858.38
2022-12-22T23:45:48.375Z,97864.28
2022-12-22T23:48:15.234Z,97855.66
2022-12-22T23:50:42.233Z,97865.91
2022-12-22T23:53:08.873Z,97856.72
2022-12-22T23:55:35.610Z,97868.84
2022-12-22T23:58:02.487Z,97866.44
